Weather at City of Colorado Springs Municipal Airport

Public forecast

Using degrees Fahrenheit for public forecast. Weather courtesy of forecast.io.

Current aviation weather report (METAR) for City of Colorado Springs Municipal Airport

Retrieved 2020/10/31 10:54 UTC (2 hours ago):

KCOS 311054Z 33012KT 10SM FEW150 12/M11 A3003 RMK AO2 SLP115 T01171111

Aviation forecast (TAF) for City of Colorado Springs Municipal Airport

Retrieved 2020/10/31 12:33 UTC (17 minutes ago):

TAF KCOS 311130Z 3112/0112 33011KT P6SM FEW250 FM311800 35015G25KT P6SM SCT250 FM312100 01020G32KT P6SM SCT250 FM010000 02012KT P6SM FEW250 FM010200 02006KT P6SM SKC FM010900 15007KT P6SM SKC